Time;durP1;ratioP1;P1;durP2;ratioP2;P2;SDS_P1;SDS_P2;PMS_P1;PMS_P2;Temp;Humidity;BMP_temperature;BMP_pressure;BME280_temperature;BME280_humidity;BME280_pressure;Samples;Min_cycle;Max_cycle;Signal;HPM_P1;HPM_P2
2022/09/04 00:02:37;;;;;;;5.03;2.95;;;19.30;99.90;;;;;;5045102;28;20401;-57
2022/09/04 00:05:06;;;;;;;6.93;3.60;;;18.80;99.90;;;;;;5051123;28;20051;-57
2022/09/04 00:07:53;;;;;;;7.95;3.42;;;18.40;99.90;;;;;;5052198;28;20099;-57
2022/09/04 00:10:32;;;;;;;6.65;3.00;;;18.00;99.90;;;;;;5052364;28;20127;-57
2022/09/04 00:13:09;;;;;;;5.50;3.17;;;17.60;99.90;;;;;;5051885;28;20033;-57
2022/09/04 00:15:43;;;;;;;7.20;3.45;;;17.30;99.90;;;;;;5051833;28;20029;-57
2022/09/04 00:18:36;;;;;;;6.43;3.25;;;17.40;99.90;;;;;;5051741;28;20489;-57
2022/09/04 00:21:08;;;;;;;5.05;3.28;;;18.60;99.90;;;;;;5047245;28;20124;-57
2022/09/04 00:24:03;;;;;;;3.45;3.08;;;18.20;99.90;;;;;;5051682;28;20049;-57
2022/09/04 00:26:51;;;;;;;5.30;3.15;;;17.20;99.90;;;;;;5051592;28;20052;-57
2022/09/04 00:29:23;;;;;;;4.53;2.70;;;17.70;99.90;;;;;;5051790;28;20025;-57
2022/09/04 00:32:11;;;;;;;5.35;2.70;;;17.60;99.90;;;;;;5051678;28;20615;-57
2022/09/04 00:35:03;;;;;;;5.47;2.80;;;17.50;99.90;;;;;;5047674;28;20037;-57
2022/09/04 00:37:35;;;;;;;4.53;2.80;;;16.90;99.90;;;;;;5051578;28;20029;-57
2022/09/04 00:40:25;;;;;;;5.20;2.90;;;16.70;99.90;;;;;;5051798;28;20162;-57
2022/09/04 00:43:21;;;;;;;5.13;3.17;;;16.80;99.90;;;;;;5051615;28;20029;-57
2022/09/04 00:46:23;;;;;;;5.47;3.00;;;16.70;99.90;;;;;;5051543;28;20036;-57
2022/09/04 00:49:07;;;;;;;6.10;3.00;;;16.80;99.90;;;;;;5050890;28;20474;-57
2022/09/04 00:51:53;;;;;;;5.03;3.40;;;16.80;99.90;;;;;;5051474;28;20079;-57
2022/09/04 00:54:30;;;;;;;3.70;2.97;;;16.90;99.90;;;;;;5051693;28;20060;-56
2022/09/04 00:57:17;;;;;;;5.70;2.95;;;16.50;99.90;;;;;;5051439;28;20079;-56
2022/09/04 01:00:02;;;;;;;5.03;3.03;;;16.50;99.90;;;;;;5051425;28;20389;-57
2022/09/04 01:02:40;;;;;;;4.13;2.70;;;16.30;99.90;;;;;;5051123;28;20029;-57
2022/09/04 01:05:33;;;;;;;3.60;3.20;;;16.70;99.90;;;;;;5051609;28;20032;-57
2022/09/04 01:08:08;;;;;;;5.13;2.97;;;17.00;99.90;;;;;;5051763;28;20025;-57
2022/09/04 01:10:55;;;;;;;5.63;2.97;;;17.70;99.90;;;;;;5051671;28;20078;-56
2022/09/04 01:13:38;;;;;;;3.72;3.10;;;17.90;99.90;;;;;;5051386;28;20029;-57
2022/09/04 01:16:13;;;;;;;3.75;2.90;;;17.30;99.90;;;;;;5051344;28;20025;-57
2022/09/04 01:18:59;;;;;;;4.68;3.00;;;17.70;99.90;;;;;;5053488;28;20052;-57
2022/09/04 01:21:43;;;;;;;5.50;3.38;;;17.90;99.90;;;;;;5054756;28;20061;-56
2022/09/04 01:24:28;;;;;;;4.90;3.05;;;18.00;99.90;;;;;;5054975;28;20086;-57
2022/09/04 01:27:03;;;;;;;4.30;3.00;;;17.40;99.90;;;;;;5054807;28;20025;-56
2022/09/04 01:29:50;;;;;;;5.35;3.10;;;17.00;99.90;;;;;;5054664;28;20040;-57
2022/09/04 01:32:40;;;;;;;5.18;3.10;;;16.80;99.90;;;;;;5054249;28;20029;-55
2022/09/04 01:35:50;;;;;;;4.55;3.30;;;16.80;99.90;;;;;;5054344;28;20416;-57
2022/09/04 01:38:32;;;;;;;4.75;3.00;;;16.90;99.90;;;;;;5049571;28;20044;-58
2022/09/04 01:41:20;;;;;;;3.78;2.90;;;16.40;99.90;;;;;;5054425;28;20033;-57
2022/09/04 01:43:46;;;;;;;6.25;3.20;;;16.40;99.90;;;;;;5054334;28;20075;-56
2022/09/04 01:47:05;;;;;;;6.68;3.70;;;16.70;99.90;;;;;;5053905;28;20033;-57
2022/09/04 01:50:04;;;;;;;4.30;3.45;;;16.60;99.90;;;;;;5032240;28;20029;-57
2022/09/04 01:52:53;;;;;;;4.57;3.00;;;16.50;99.90;;;;;;5032083;28;20037;-55
2022/09/04 01:55:37;;;;;;;5.00;3.15;;;16.80;99.90;;;;;;5032139;28;20051;-56
2022/09/04 01:58:27;;;;;;;6.13;3.22;;;17.00;99.90;;;;;;5032203;28;20033;-56
2022/09/04 02:01:02;;;;;;;6.60;3.50;;;16.80;99.90;;;;;;5031625;28;20117;-55
2022/09/04 02:03:55;;;;;;;6.50;3.40;;;16.80;99.90;;;;;;5032363;28;20446;-57
2022/09/04 02:06:49;;;;;;;4.85;3.53;;;16.90;99.90;;;;;;5032011;28;20116;-57
2022/09/04 02:09:44;;;;;;;5.68;3.00;;;17.30;99.90;;;;;;5032234;28;20037;-56
2022/09/04 02:12:24;;;;;;;5.70;3.30;;;17.10;99.90;;;;;;5031786;28;20560;-56
2022/09/04 02:15:05;;;;;;;5.30;3.40;;;17.30;99.90;;;;;;5031361;28;20048;-55
2022/09/04 02:17:33;;;;;;;5.55;3.40;;;16.70;99.90;;;;;;5031597;28;20394;-56
2022/09/04 02:20:15;;;;;;;6.32;3.60;;;16.90;99.90;;;;;;5039855;28;20056;-57
2022/09/04 02:22:53;;;;;;;6.28;3.70;;;16.80;99.90;;;;;;5053987;28;20543;-56
2022/09/04 02:25:22;;;;;;;5.60;3.47;;;16.90;99.90;;;;;;5053700;28;20623;-56
2022/09/04 02:28:18;;;;;;;5.88;3.15;;;16.50;99.90;;;;;;5053480;28;20096;-57
2022/09/04 02:31:25;;;;;;;5.53;3.13;;;16.60;99.90;;;;;;5053098;28;20485;-57
2022/09/04 02:34:07;;;;;;;5.07;2.83;;;16.90;99.90;;;;;;5052244;28;20036;-56
2022/09/04 02:36:54;;;;;;;3.88;3.30;;;17.60;99.90;;;;;;5053592;28;20104;-56
2022/09/04 02:39:41;;;;;;;3.95;3.13;;;17.40;99.90;;;;;;5053650;28;20393;-56
2022/09/04 02:42:24;;;;;;;4.50;3.13;;;17.10;99.90;;;;;;5053378;28;20028;-57
2022/09/04 02:45:08;;;;;;;4.45;3.75;;;16.90;99.90;;;;;;5052822;28;20115;-56
2022/09/04 02:47:48;;;;;;;4.13;3.22;;;17.40;99.90;;;;;;5053206;28;20032;-56
2022/09/04 02:50:29;;;;;;;5.13;3.13;;;17.20;99.90;;;;;;5053203;28;20032;-56
2022/09/04 02:53:29;;;;;;;4.95;3.33;;;17.50;99.90;;;;;;5053118;28;20124;-55
2022/09/04 02:56:16;;;;;;;4.80;3.40;;;17.30;99.90;;;;;;5053119;28;20385;-56
2022/09/04 02:59:02;;;;;;;4.95;3.25;;;16.90;99.90;;;;;;5052742;28;20025;-56
2022/09/04 03:01:46;;;;;;;5.82;3.28;;;16.90;99.90;;;;;;5052884;28;20033;-57
2022/09/04 03:04:17;;;;;;;5.30;3.25;;;16.30;99.90;;;;;;5052937;28;20059;-55
2022/09/04 03:07:06;;;;;;;4.65;3.28;;;16.10;99.90;;;;;;5052860;28;20028;-56
2022/09/04 03:09:58;;;;;;;3.75;3.35;;;16.80;99.90;;;;;;5052692;28;20102;-57
2022/09/04 03:12:50;;;;;;;4.78;3.55;;;16.20;99.90;;;;;;5052508;28;20033;-57
2022/09/04 03:15:38;;;;;;;4.28;3.28;;;16.50;99.90;;;;;;5052815;28;20505;-56
2022/09/04 03:18:04;;;;;;;5.38;3.13;;;16.20;99.90;;;;;;5053125;28;20051;-56
2022/09/04 03:20:41;;;;;;;3.70;2.92;;;16.60;99.90;;;;;;5051936;28;20048;-56
2022/09/04 03:23:23;;;;;;;6.32;3.40;;;16.60;99.90;;;;;;5053156;28;20415;-57
2022/09/04 03:26:10;;;;;;;4.57;3.13;;;16.60;99.90;;;;;;5052390;28;20557;-56
2022/09/04 03:28:53;;;;;;;5.32;3.30;;;16.30;99.90;;;;;;5052092;28;20017;-56
2022/09/04 03:32:10;;;;;;;3.97;3.58;;;16.10;99.90;;;;;;5052347;28;20029;-57
2022/09/04 03:35:08;;;;;;;4.57;3.40;;;16.10;99.90;;;;;;5030336;28;20044;-56
2022/09/04 03:37:42;;;;;;;5.38;3.20;;;16.20;99.90;;;;;;5013495;28;20025;-56
2022/09/04 03:40:22;;;;;;;5.47;3.60;;;16.10;99.90;;;;;;5029711;28;20034;-56
2022/09/04 03:43:21;;;;;;;4.93;3.42;;;16.20;99.90;;;;;;5029910;28;20121;-57
2022/09/04 03:46:07;;;;;;;6.38;3.58;;;16.50;99.90;;;;;;5030164;28;20030;-56
2022/09/04 03:48:53;;;;;;;5.07;3.28;;;16.30;99.90;;;;;;4990623;28;20038;-57
2022/09/04 03:51:45;;;;;;;4.97;3.20;;;16.20;99.90;;;;;;4990289;28;20500;-57
2022/09/04 03:54:14;;;;;;;4.65;3.30;;;15.90;99.90;;;;;;4971165;28;20043;-56
2022/09/04 03:56:48;;;;;;;6.55;3.90;;;16.10;99.90;;;;;;4971104;28;20065;-56
2022/09/04 03:59:51;;;;;;;4.00;3.30;;;15.90;99.90;;;;;;4971284;28;20654;-56
2022/09/04 04:02:19;;;;;;;6.25;3.70;;;15.80;99.90;;;;;;4971165;28;20070;-56
2022/09/04 04:05:01;;;;;;;5.28;3.55;;;16.00;99.90;;;;;;4971172;28;20043;-57
2022/09/04 04:07:34;;;;;;;5.72;3.22;;;16.20;99.90;;;;;;4970987;28;20038;-57
2022/09/04 04:10:05;;;;;;;4.55;3.30;;;16.00;99.90;;;;;;4963009;28;20035;-56
2022/09/04 04:12:41;;;;;;;7.25;3.33;;;15.80;99.90;;;;;;4951332;29;20197;-56
2022/09/04 04:15:26;;;;;;;4.95;3.35;;;16.40;99.90;;;;;;4951767;29;20102;-56
2022/09/04 04:18:36;;;;;;;5.68;3.42;;;16.00;99.90;;;;;;4951648;29;20043;-57
2022/09/04 04:21:16;;;;;;;5.63;3.55;;;15.70;99.90;;;;;;4932294;29;20031;-57
2022/09/04 04:23:49;;;;;;;4.50;3.17;;;15.90;99.90;;;;;;4932406;29;20048;-56
2022/09/04 04:26:51;;;;;;;9.32;3.10;;;16.10;99.90;;;;;;4960716;28;20043;-56
2022/09/04 04:29:29;;;;;;;4.10;3.30;;;16.00;99.90;;;;;;4951531;29;20050;-57
2022/09/04 04:32:13;;;;;;;4.93;3.25;;;16.30;99.90;;;;;;4935164;29;20040;-56
2022/09/04 04:34:41;;;;;;;;;;;15.90;99.90;;;;;;4933101;29;20472;-56
2022/09/04 04:37:14;;;;;;;6.50;3.45;;;16.20;99.90;;;;;;4932483;29;20009;-56
2022/09/04 04:39:50;;;;;;;5.20;3.07;;;15.80;99.90;;;;;;4932227;29;20039;-56
2022/09/04 04:43:00;;;;;;;3.67;3.10;;;16.20;99.90;;;;;;4932845;29;20028;-56
2022/09/04 04:45:50;;;;;;;4.85;3.30;;;16.10;99.90;;;;;;4932681;29;20036;-57
2022/09/04 04:48:25;;;;;;;3.85;3.17;;;16.00;99.90;;;;;;4932263;29;20523;-56
2022/09/04 04:51:30;;;;;;;6.13;3.28;;;16.30;99.90;;;;;;4932337;29;20047;-56
2022/09/04 04:54:30;;;;;;;5.50;3.38;;;16.70;99.90;;;;;;4935931;29;20115;-57
2022/09/04 04:57:09;;;;;;;4.20;3.20;;;16.40;99.90;;;;;;4939267;28;20079;-56
2022/09/04 04:59:46;;;;;;;5.70;3.60;;;16.20;99.90;;;;;;5013369;28;20426;-57
2022/09/04 05:02:33;;;;;;;5.43;3.55;;;15.80;99.90;;;;;;5013734;28;20112;-56
2022/09/04 05:05:12;;;;;;;7.97;3.90;;;15.80;99.90;;;;;;5023897;28;20076;-56
2022/09/04 05:07:51;;;;;;;4.60;3.20;;;15.60;99.90;;;;;;5054979;28;20079;-56
2022/09/04 05:10:17;;;;;;;4.85;3.33;;;15.60;99.90;;;;;;5055084;28;20104;-56
2022/09/04 05:13:01;;;;;;;4.95;3.55;;;15.50;99.90;;;;;;5055081;28;20448;-56
2022/09/04 05:15:46;;;;;;;4.90;3.50;;;15.30;99.90;;;;;;5055387;28;20025;-57
2022/09/04 05:18:29;;;;;;;4.53;3.45;;;15.80;99.90;;;;;;5054869;28;20155;-55
2022/09/04 05:21:10;;;;;;;4.63;3.47;;;15.30;99.90;;;;;;5054683;28;20060;-57
2022/09/04 05:23:43;;;;;;;4.07;3.55;;;15.60;99.90;;;;;;5054513;28;20303;-55
2022/09/04 05:26:20;;;;;;;4.05;3.17;;;15.50;99.90;;;;;;5054843;28;20116;-57
2022/09/04 05:29:20;;;;;;;5.43;3.20;;;15.90;99.90;;;;;;5054786;28;20021;-57
2022/09/04 05:32:09;;;;;;;5.72;3.67;;;16.00;99.90;;;;;;5054903;28;20029;-56
2022/09/04 05:34:35;;;;;;;6.75;3.90;;;15.60;99.90;;;;;;5032847;28;20505;-56
2022/09/04 05:37:18;;;;;;;3.40;3.10;;;15.80;99.90;;;;;;5032384;28;20036;-56
2022/09/04 05:40:03;;;;;;;3.92;3.35;;;15.80;99.90;;;;;;5031858;28;20545;-57
2022/09/04 05:42:55;;;;;;;6.03;3.40;;;15.60;99.90;;;;;;5032420;28;20033;-56
2022/09/04 05:45:48;;;;;;;4.90;3.35;;;16.70;99.90;;;;;;5032284;28;20120;-56
2022/09/04 05:48:35;;;;;;;4.53;3.00;;;15.80;99.90;;;;;;5032209;28;20411;-56
2022/09/04 05:51:21;;;;;;;4.75;3.30;;;16.70;99.90;;;;;;5032280;28;20038;-56
2022/09/04 05:54:30;;;;;;;4.60;3.38;;;16.90;99.90;;;;;;5031700;28;20622;-57
2022/09/04 05:56:58;;;;;;;5.38;3.72;;;15.90;99.90;;;;;;5031958;28;20072;-55
2022/09/04 05:59:36;;;;;;;4.85;3.33;;;15.90;99.90;;;;;;5032212;28;20054;-57
2022/09/04 06:02:25;;;;;;;3.95;3.00;;;15.80;99.90;;;;;;5032105;28;20546;-56
2022/09/04 06:05:02;;;;;;;4.55;3.28;;;16.70;99.90;;;;;;4991917;28;20043;-56
2022/09/04 06:07:45;;;;;;;4.38;3.30;;;16.60;99.90;;;;;;4991931;28;20060;-56
2022/09/04 06:10:27;;;;;;;7.50;3.28;;;17.20;99.90;;;;;;4992473;28;20534;-56
2022/09/04 06:13:07;;;;;;;4.63;3.08;;;17.10;99.90;;;;;;4992688;28;20063;-55
2022/09/04 06:15:45;;;;;;;5.90;3.38;;;18.00;99.90;;;;;;4992167;28;20066;-57
2022/09/04 06:18:26;;;;;;;3.88;2.70;;;20.00;99.90;;;;;;4992347;28;20034;-56
2022/09/04 06:20:51;;;;;;;6.82;2.83;;;21.00;99.90;;;;;;4991970;28;20120;-57
2022/09/04 06:23:30;;;;;;;5.22;3.13;;;21.20;99.90;;;;;;4991906;28;20043;-57
2022/09/04 06:26:17;;;;;;;5.15;2.63;;;21.00;99.90;;;;;;4992253;28;20161;-57
2022/09/04 06:29:01;;;;;;;4.25;2.90;;;21.30;99.90;;;;;;4992002;28;20049;-57
2022/09/04 06:31:38;;;;;;;3.75;3.00;;;21.60;99.90;;;;;;4991997;28;20126;-57
2022/09/04 06:34:24;;;;;;;3.88;3.00;;;22.60;99.90;;;;;;4992158;28;20117;-56
2022/09/04 06:37:13;;;;;;;7.32;3.40;;;23.70;99.90;;;;;;4991509;28;20030;-57
2022/09/04 06:39:42;;;;;;;6.40;3.65;;;23.80;99.90;;;;;;4992127;28;20058;-57
2022/09/04 06:42:43;;;;;;;4.40;3.00;;;24.10;99.90;;;;;;5028255;28;20068;-57
2022/09/04 06:45:30;;;;;;;4.57;2.80;;;24.90;99.90;;;;;;5031000;28;20086;-57
2022/09/04 06:48:06;;;;;;;4.15;3.17;;;25.50;99.90;;;;;;5030922;28;20087;-56
2022/09/04 06:50:37;;;;;;;5.25;2.92;;;25.60;99.90;;;;;;5030937;28;20033;-57
2022/09/04 06:53:33;;;;;;;5.32;3.10;;;26.50;99.90;;;;;;5031081;28;20176;-56
2022/09/04 06:56:35;;;;;;;4.28;2.80;;;26.90;99.50;;;;;;5030913;28;20030;-57
2022/09/04 06:59:17;;;;;;;5.03;3.00;;;27.20;99.00;;;;;;5030756;28;20046;-57
2022/09/04 07:01:53;;;;;;;5.32;3.17;;;28.00;97.60;;;;;;5030797;28;20050;-57
2022/09/04 07:04:47;;;;;;;5.25;3.00;;;27.60;97.90;;;;;;5030585;28;20037;-57
2022/09/04 07:07:15;;;;;;;4.25;3.10;;;28.20;97.10;;;;;;4991213;28;20112;-57
2022/09/04 07:10:17;;;;;;;4.25;2.97;;;29.10;95.60;;;;;;4991501;28;20039;-57
2022/09/04 07:13:15;;;;;;;7.38;3.22;;;29.80;94.30;;;;;;4990140;28;20030;-57
2022/09/04 07:16:18;;;;;;;7.43;3.38;;;29.80;94.40;;;;;;4990286;28;20110;-57
2022/09/04 07:19:03;;;;;;;5.45;3.28;;;30.00;93.80;;;;;;4990869;28;20448;-57
2022/09/04 07:21:42;;;;;;;5.45;3.40;;;31.70;92.30;;;;;;4990537;28;20141;-57
2022/09/04 07:24:29;;;;;;;4.50;3.30;;;29.90;93.40;;;;;;4991123;28;20576;-57
2022/09/04 07:27:29;;;;;;;5.47;3.72;;;29.80;94.10;;;;;;4991026;28;20038;-57
2022/09/04 07:30:04;;;;;;;4.80;3.13;;;30.20;93.00;;;;;;4990891;28;20115;-57
2022/09/04 07:33:10;;;;;;;4.80;3.33;;;32.20;91.40;;;;;;4990671;28;20058;-57
2022/09/04 07:35:42;;;;;;;7.10;3.90;;;31.60;91.10;;;;;;4990498;28;20511;-57
2022/09/04 07:38:45;;;;;;;5.95;3.50;;;31.30;91.80;;;;;;4990783;28;20034;-57
2022/09/04 07:41:22;;;;;;;5.13;3.67;;;33.00;90.80;;;;;;4990881;28;20039;-57
2022/09/04 07:44:04;;;;;;;5.90;3.80;;;32.60;90.70;;;;;;4998624;28;20057;-57
2022/09/04 07:46:39;;;;;;;9.70;3.90;;;32.50;90.80;;;;;;5010415;28;20025;-57
2022/09/04 07:49:32;;;;;;;5.15;3.80;;;33.20;90.70;;;;;;5010002;28;20459;-57
2022/09/04 07:52:02;;;;;;;6.45;3.80;;;32.20;91.50;;;;;;5010201;28;20030;-58
2022/09/04 07:54:48;;;;;;;7.10;4.10;;;33.10;90.30;;;;;;5010703;28;20092;-57
2022/09/04 07:57:16;;;;;;;6.57;4.05;;;33.40;90.10;;;;;;5003186;28;20034;-57
2022/09/04 07:59:50;;;;;;;4.85;3.60;;;31.50;91.40;;;;;;5010150;28;20042;-57
2022/09/04 08:02:35;;;;;;;5.50;3.67;;;33.30;88.30;;;;;;5010389;28;20053;-57
2022/09/04 08:05:13;;;;;;;5.38;4.00;;;33.10;90.10;;;;;;5009792;28;20034;-57
2022/09/04 08:07:39;;;;;;;5.60;4.05;;;33.10;89.20;;;;;;5044095;28;20041;-57
2022/09/04 08:10:22;;;;;;;5.50;3.50;;;33.20;89.30;;;;;;5051921;28;20543;-58
2022/09/04 08:12:55;;;;;;;;;;;32.60;90.60;;;;;;5052385;28;20069;-58
2022/09/04 08:15:55;;;;;;;5.95;3.80;;;34.00;88.40;;;;;;5051921;28;19905;-57
2022/09/04 08:18:29;;;;;;;7.07;3.92;;;33.50;88.70;;;;;;5051675;28;20017;-57
2022/09/04 08:21:16;;;;;;;6.57;3.90;;;34.80;87.80;;;;;;5051471;28;20401;-57
2022/09/04 08:24:04;;;;;;;4.68;3.80;;;34.50;86.70;;;;;;5051863;28;20024;-57
2022/09/04 08:27:27;;;;;;;6.45;3.67;;;33.60;88.30;;;;;;5052752;28;20025;-57
2022/09/04 08:30:04;;;;;;;4.30;3.80;;;33.20;90.10;;;;;;5033752;28;20067;-57
2022/09/04 08:32:50;;;;;;;4.88;3.65;;;34.20;88.60;;;;;;5033247;28;20037;-58
2022/09/04 08:35:17;;;;;;;5.75;3.65;;;36.80;84.00;;;;;;5033552;28;20033;-57
2022/09/04 08:37:48;;;;;;;6.88;3.78;;;36.20;83.90;;;;;;5033883;28;20029;-58
2022/09/04 08:40:32;;;;;;;4.10;3.22;;;36.90;82.50;;;;;;5033480;28;20030;-57
2022/09/04 08:43:16;;;;;;;6.25;3.67;;;37.00;82.60;;;;;;5033618;28;20039;-57
2022/09/04 08:45:59;;;;;;;;;;;36.80;83.00;;;;;;5033870;28;20025;-57
2022/09/04 08:48:44;;;;;;;4.40;3.75;;;36.40;82.20;;;;;;5032996;28;19912;-57
2022/09/04 08:51:15;;;;;;;5.32;3.60;;;36.50;81.80;;;;;;5033245;28;20041;-51
2022/09/04 08:54:01;;;;;;;6.75;3.63;;;34.50;85.50;;;;;;5033220;28;20049;-56
2022/09/04 08:56:35;;;;;;;4.63;3.45;;;36.50;83.40;;;;;;5033695;28;20037;-56
2022/09/04 08:59:45;;;;;;;3.97;3.58;;;37.40;80.90;;;;;;5033516;28;20033;-57
2022/09/04 09:03:00;;;;;;;3.72;3.30;;;36.10;82.70;;;;;;5054870;28;20051;-57
2022/09/04 09:05:44;;;;;;;6.18;3.35;;;37.50;81.70;;;;;;5032990;28;20045;-60
2022/09/04 09:08:39;;;;;;;5.18;3.40;;;36.50;82.50;;;;;;5033429;28;20074;-56
2022/09/04 09:11:33;;;;;;;6.18;3.20;;;36.70;82.20;;;;;;5033092;28;20064;-54
2022/09/04 09:14:23;;;;;;;5.47;3.25;;;38.30;79.60;;;;;;5028625;28;20631;-56
2022/09/04 09:16:55;;;;;;;4.72;3.40;;;37.70;80.10;;;;;;5025659;28;20499;-54
2022/09/04 09:19:43;;;;;;;5.10;3.35;;;37.90;80.10;;;;;;5032702;28;20375;-56
2022/09/04 09:22:33;;;;;;;5.07;3.03;;;37.50;80.50;;;;;;5032273;28;20072;-56
2022/09/04 09:25:13;;;;;;;5.32;2.90;;;37.10;80.70;;;;;;5032591;28;20238;-56
2022/09/04 09:27:44;;;;;;;6.90;2.92;;;38.80;80.00;;;;;;5032613;28;20084;-58
2022/09/04 09:30:18;;;;;;;5.78;2.95;;;39.40;78.30;;;;;;5032125;28;20112;-57
2022/09/04 09:32:58;;;;;;;4.32;3.00;;;40.00;76.30;;;;;;5032105;28;20048;-58
2022/09/04 09:35:36;;;;;;;4.65;3.38;;;37.00;79.20;;;;;;5032622;28;20033;-58
2022/09/04 09:38:19;;;;;;;4.65;3.50;;;37.30;79.60;;;;;;5031375;28;20036;-56
2022/09/04 09:40:59;;;;;;;6.38;3.90;;;37.60;79.10;;;;;;5043604;28;20037;-56
2022/09/04 09:43:59;;;;;;;7.63;3.80;;;38.10;78.30;;;;;;5053923;28;20167;-57
2022/09/04 09:46:49;;;;;;;7.95;3.97;;;38.30;78.00;;;;;;5053513;28;20032;-58
2022/09/04 09:49:21;;;;;;;6.15;4.95;;;38.30;77.90;;;;;;5054177;28;20036;-57
2022/09/04 09:52:07;;;;;;;11.50;5.93;;;38.40;77.80;;;;;;5054154;28;20444;-58
2022/09/04 09:54:58;;;;;;;9.45;6.38;;;38.50;77.10;;;;;;5054447;28;20440;-58
2022/09/04 09:57:44;;;;;;;131.25;17.55;;;38.70;77.20;;;;;;5054239;28;20024;-58
2022/09/04 10:00:16;;;;;;;210.65;24.90;;;38.30;77.50;;;;;;5053627;28;20052;-57
2022/09/04 10:03:23;;;;;;;314.10;37.97;;;37.80;77.50;;;;;;5054276;28;20082;-58
2022/09/04 10:06:19;;;;;;;398.77;42.40;;;39.50;77.30;;;;;;5053860;28;20413;-58
2022/09/04 10:09:22;;;;;;;21.20;8.18;;;40.00;75.50;;;;;;5054345;28;20086;-57
2022/09/04 10:12:19;;;;;;;81.53;14.40;;;39.40;72.60;;;;;;5054224;28;20031;-58
2022/09/04 10:15:24;;;;;;;12.13;7.70;;;39.30;75.60;;;;;;5053888;28;20159;-58
2022/09/04 10:18:10;;;;;;;19.48;7.35;;;40.20;73.70;;;;;;5031982;28;20041;-58
2022/09/04 10:21:13;;;;;;;25.85;8.13;;;38.40;74.40;;;;;;5031275;28;20053;-59
2022/09/04 10:23:45;;;;;;;44.80;9.60;;;38.10;76.30;;;;;;5031891;28;20044;-59
2022/09/04 10:26:16;;;;;;;42.22;8.93;;;37.50;74.50;;;;;;5031634;28;20103;-58
2022/09/04 10:28:55;;;;;;;28.55;6.88;;;37.50;75.40;;;;;;5030985;28;20088;-58
2022/09/04 10:31:43;;;;;;;15.63;4.65;;;38.00;74.30;;;;;;5030752;28;20490;-55
2022/09/04 10:34:43;;;;;;;11.90;3.78;;;37.00;75.40;;;;;;5030604;28;20052;-59
2022/09/04 10:37:27;;;;;;;9.82;3.65;;;36.20;75.40;;;;;;5031040;28;20038;-59
2022/09/04 10:43:52;;;;;;;25.42;4.35;;;34.60;76.60;;;;;;5030660;28;19994;-59
2022/09/04 10:46:42;;;;;;;48.00;6.18;;;35.30;72.80;;;;;;4991731;28;20022;-59
2022/09/04 10:49:17;;;;;;;8.13;2.65;;;34.70;73.20;;;;;;4991765;28;20101;-59
2022/09/04 10:52:04;;;;;;;6.88;2.60;;;35.20;73.90;;;;;;4991771;28;20113;-59
2022/09/04 10:54:44;;;;;;;10.10;2.63;;;36.40;72.40;;;;;;4991722;28;20045;-59
2022/09/04 10:57:27;;;;;;;8.85;3.17;;;36.10;71.90;;;;;;4991093;28;20054;-59
2022/09/04 11:00:10;;;;;;;7.38;2.85;;;35.30;72.20;;;;;;4991762;28;20049;-58
2022/09/04 11:03:01;;;;;;;4.55;2.58;;;34.50;73.10;;;;;;4991647;28;20437;-58
2022/09/04 11:05:45;;;;;;;7.22;2.92;;;34.30;73.20;;;;;;4991618;28;20483;-59
2022/09/04 11:08:12;;;;;;;7.03;2.60;;;32.80;76.70;;;;;;4991377;28;20027;-58
2022/09/04 11:10:56;;;;;;;5.20;2.33;;;35.10;73.50;;;;;;4991281;28;20489;-64
2022/09/04 11:13:22;;;;;;;6.05;2.70;;;34.40;73.20;;;;;;4991156;28;20038;-60
2022/09/04 11:16:09;;;;;;;7.13;2.70;;;34.00;74.20;;;;;;4997227;28;20030;-60
2022/09/04 11:19:03;;;;;;;9.98;2.80;;;33.80;73.70;;;;;;5053174;28;20033;-60
2022/09/04 11:21:58;;;;;;;6.60;2.55;;;33.60;73.00;;;;;;5050512;28;20060;-60
2022/09/04 11:24:36;;;;;;;4.03;2.40;;;33.60;73.50;;;;;;5047840;28;20151;-60
2022/09/04 11:27:32;;;;;;;5.72;2.55;;;33.30;73.00;;;;;;5052122;28;20039;-60
2022/09/04 11:30:16;;;;;;;5.00;2.60;;;33.80;72.90;;;;;;5052617;28;20021;-60
2022/09/04 11:32:50;;;;;;;7.10;2.60;;;33.80;73.40;;;;;;5052512;28;20037;-60
2022/09/04 11:35:22;;;;;;;3.92;2.45;;;33.50;74.20;;;;;;5052468;28;20029;-60
2022/09/04 11:38:42;;;;;;;7.00;2.40;;;33.70;72.20;;;;;;5052829;28;20028;-61
2022/09/04 11:41:27;;;;;;;4.22;2.67;;;33.70;72.60;;;;;;5051574;28;20108;-59
2022/09/04 11:44:27;;;;;;;8.52;2.60;;;33.40;72.00;;;;;;5052444;28;20158;-61
2022/09/04 11:46:52;;;;;;;4.20;2.45;;;33.30;71.30;;;;;;5051351;28;20070;-59
2022/09/04 11:50:03;;;;;;;3.17;2.20;;;32.80;73.20;;;;;;5052493;28;20481;-59
2022/09/04 11:52:45;;;;;;;8.35;2.40;;;32.80;71.20;;;;;;5052185;28;20048;-60
2022/09/04 11:55:34;;;;;;;3.97;2.22;;;33.40;70.40;;;;;;5052247;28;20025;-61
2022/09/04 11:58:25;;;;;;;5.05;2.15;;;33.00;71.10;;;;;;5052114;28;20389;-60
2022/09/04 12:01:19;;;;;;;3.90;2.17;;;32.80;70.60;;;;;;5051627;28;20424;-60
2022/09/04 12:04:21;;;;;;;5.60;2.08;;;33.10;67.20;;;;;;5052258;28;20021;-60
2022/09/04 12:07:24;;;;;;;4.47;2.00;;;33.50;66.40;;;;;;5051914;28;20029;-59
2022/09/04 12:10:25;;;;;;;2.85;1.90;;;33.50;67.70;;;;;;5051459;28;20111;-59
2022/09/04 12:13:42;;;;;;;3.30;1.92;;;33.40;70.10;;;;;;5051492;28;20588;-61
2022/09/04 12:16:14;;;;;;;8.57;2.05;;;33.20;68.60;;;;;;5029640;28;20033;-59
2022/09/04 12:19:09;;;;;;;4.43;2.10;;;32.70;67.40;;;;;;5029734;28;20037;-57
2022/09/04 12:21:40;;;;;;;3.05;1.88;;;33.40;67.90;;;;;;5029652;28;20061;-58
2022/09/04 12:24:43;;;;;;;3.55;1.90;;;32.90;68.30;;;;;;5029440;28;20096;-57
2022/09/04 12:27:27;;;;;;;4.90;1.90;;;32.50;68.60;;;;;;5029775;28;20045;-58
2022/09/04 12:30:19;;;;;;;3.28;1.98;;;32.40;68.40;;;;;;5029648;28;20650;-57
2022/09/04 12:33:03;;;;;;;2.72;1.80;;;33.20;67.30;;;;;;5029487;28;20507;-58
2022/09/04 12:36:05;;;;;;;3.03;1.85;;;33.70;66.70;;;;;;5029572;28;20085;-58
2022/09/04 12:38:42;;;;;;;7.10;2.20;;;33.40;67.80;;;;;;5029093;28;20037;-59
2022/09/04 12:41:34;;;;;;;4.30;2.05;;;33.00;68.20;;;;;;5029875;28;20049;-58
2022/09/04 12:44:11;;;;;;;4.63;2.10;;;33.10;68.80;;;;;;5029616;28;20037;-58
2022/09/04 12:46:59;;;;;;;5.70;2.00;;;33.00;69.30;;;;;;5013944;28;20040;-59
2022/09/04 12:50:08;;;;;;;3.75;2.20;;;33.70;69.30;;;;;;5036550;28;20485;-59
2022/09/04 12:52:46;;;;;;;4.32;2.08;;;33.30;70.10;;;;;;5028607;28;20046;-58
2022/09/04 12:55:18;;;;;;;5.07;2.50;;;32.00;72.60;;;;;;5029107;28;20034;-59
2022/09/04 12:58:08;;;;;;;3.92;2.30;;;32.10;73.10;;;;;;5029132;28;20033;-58
2022/09/04 13:00:44;;;;;;;5.47;2.38;;;33.00;73.10;;;;;;5029556;28;20040;-59
2022/09/04 13:03:17;;;;;;;6.03;2.40;;;31.90;74.50;;;;;;5029171;28;20049;-59
2022/09/04 13:06:02;;;;;;;4.65;2.30;;;31.60;75.80;;;;;;5029799;28;20029;-59
2022/09/04 13:08:49;;;;;;;3.38;2.15;;;32.10;74.10;;;;;;5028817;28;20045;-59
2022/09/04 13:11:23;;;;;;;2.60;1.80;;;32.10;74.10;;;;;;5013621;28;20491;-59
2022/09/04 13:14:09;;;;;;;8.02;2.40;;;32.20;73.60;;;;;;5032214;28;20041;-59
2022/09/04 13:17:04;;;;;;;4.40;2.25;;;32.00;74.50;;;;;;5032898;28;20132;-58
2022/09/04 13:19:33;;;;;;;5.35;2.65;;;31.50;75.40;;;;;;5032829;28;20025;-59
2022/09/04 13:22:17;;;;;;;3.83;2.10;;;31.50;74.50;;;;;;5032250;28;20071;-58
2022/09/04 13:24:50;;;;;;;4.03;2.35;;;32.40;73.50;;;;;;5032943;28;20033;-59
2022/09/04 13:27:48;;;;;;;6.82;2.17;;;32.10;74.10;;;;;;5032785;28;20029;-59
2022/09/04 13:30:25;;;;;;;3.75;1.88;;;32.80;71.40;;;;;;5049917;28;20044;-59
2022/09/04 13:33:25;;;;;;;5.43;2.13;;;32.50;71.10;;;;;;5054796;28;20087;-59
2022/09/04 13:36:35;;;;;;;3.47;1.90;;;32.30;72.40;;;;;;5054460;28;20550;-59
2022/09/04 13:39:04;;;;;;;3.53;2.00;;;32.20;71.30;;;;;;5053375;28;20029;-59
2022/09/04 13:41:49;;;;;;;3.63;2.15;;;32.60;71.50;;;;;;5054618;28;20448;-59
2022/09/04 13:44:49;;;;;;;3.45;2.15;;;32.70;71.60;;;;;;5054507;28;20040;-59
2022/09/04 13:47:24;;;;;;;2.78;2.03;;;31.50;74.40;;;;;;5054352;28;20033;-59
2022/09/04 13:49:56;;;;;;;3.75;1.90;;;31.00;73.30;;;;;;5053134;28;20366;-60
2022/09/04 13:53:02;;;;;;;6.95;2.30;;;31.60;70.50;;;;;;5053946;28;20037;-59
2022/09/04 13:55:36;;;;;;;6.38;2.22;;;31.20;75.90;;;;;;5050300;28;20037;-60
2022/09/04 13:58:34;;;;;;;3.08;2.08;;;30.60;74.40;;;;;;5054249;28;20037;-60
2022/09/04 14:01:05;;;;;;;5.88;2.13;;;30.50;77.00;;;;;;5049763;28;20075;-60
2022/09/04 14:03:40;;;;;;;6.00;2.08;;;30.60;74.90;;;;;;5054634;28;20506;-59
2022/09/04 14:06:13;;;;;;;3.67;2.10;;;30.50;79.00;;;;;;5053532;28;20029;-59
2022/09/04 14:08:42;;;;;;;3.85;1.75;;;30.80;78.00;;;;;;5054328;28;20568;-60
2022/09/04 14:11:32;;;;;;;3.78;2.00;;;31.00;71.40;;;;;;5053875;28;20118;-60
2022/09/04 14:14:19;;;;;;;5.25;2.10;;;30.60;78.40;;;;;;5054195;28;20036;-59
2022/09/04 14:16:49;;;;;;;3.28;1.90;;;30.70;74.20;;;;;;5053762;28;20500;-59
2022/09/04 14:19:25;;;;;;;4.43;2.08;;;30.20;79.30;;;;;;5053773;28;20028;-60
2022/09/04 14:22:05;;;;;;;3.22;2.10;;;29.80;80.50;;;;;;5053125;28;20091;-60